createdAt,value
2019-02-10T00:00:46.647Z,94.40
2019-02-10T00:02:22.436Z,94.40
2019-02-10T00:03:59.443Z,94.40
2019-02-10T00:05:35.000Z,94.60
2019-02-10T00:07:10.503Z,94.40
2019-02-10T00:08:46.252Z,94.40
2019-02-10T00:10:21.839Z,94.40
2019-02-10T00:11:57.327Z,94.50
2019-02-10T00:13:34.803Z,94.50
2019-02-10T00:15:10.369Z,94.50
2019-02-10T00:16:46.150Z,94.50
2019-02-10T00:18:22.223Z,94.60
2019-02-10T00:19:59.218Z,94.60
2019-02-10T00:21:34.712Z,94.60
2019-02-10T00:23:10.196Z,94.70
2019-02-10T00:24:45.700Z,94.60
2019-02-10T00:26:21.229Z,94.70
2019-02-10T00:27:56.712Z,94.70
2019-02-10T00:29:32.271Z,94.70
2019-02-10T00:31:07.768Z,94.70
2019-02-10T00:32:44.772Z,94.70
2019-02-10T00:34:20.275Z,94.70
2019-02-10T00:35:55.849Z,94.70
2019-02-10T00:37:31.350Z,94.80
2019-02-10T00:39:08.489Z,94.90
2019-02-10T00:40:43.991Z,94.80
2019-02-10T00:42:19.495Z,94.90
2019-02-10T00:43:55.055Z,94.90
2019-02-10T00:45:30.571Z,94.80
2019-02-10T00:47:06.051Z,94.90
2019-02-10T00:48:41.544Z,94.90
2019-02-10T00:50:17.112Z,94.90
2019-02-10T00:51:52.635Z,94.90
2019-02-10T00:53:28.122Z,94.90
2019-02-10T00:55:03.617Z,95.20
2019-02-10T00:56:39.118Z,95.10
2019-02-10T00:58:16.182Z,95.30
2019-02-10T00:59:51.721Z,95.10
2019-02-10T01:01:27.212Z,95.10
2019-02-10T01:03:02.706Z,95.10
2019-02-10T01:04:38.344Z,95.10
2019-02-10T01:06:13.881Z,95.10
2019-02-10T01:07:49.383Z,95.20
2019-02-10T01:09:24.984Z,95.30
2019-02-10T01:11:00.476Z,95.50
2019-02-10T01:12:35.973Z,95.20
2019-02-10T01:14:11.468Z,95.20
2019-02-10T01:15:46.992Z,95.20
2019-02-10T01:17:22.468Z,95.20
2019-02-10T01:19:08.353Z,95.50
2019-02-10T01:20:43.852Z,95.20
2019-02-10T01:22:20.697Z,95.30
2019-02-10T01:23:56.165Z,95.30
2019-02-10T01:25:31.750Z,95.30
2019-02-10T01:27:07.331Z,95.30
2019-02-10T01:28:42.832Z,95.30
2019-02-10T01:30:18.323Z,95.40
2019-02-10T01:31:53.908Z,95.40
2019-02-10T01:33:29.409Z,95.40
2019-02-10T01:35:04.955Z,95.40
2019-02-10T01:36:40.449Z,95.50
2019-02-10T01:38:15.947Z,95.40
2019-02-10T01:39:51.444Z,95.50
2019-02-10T01:41:27.037Z,95.50
2019-02-10T01:43:02.530Z,95.50
2019-02-10T01:44:38.500Z,95.50
2019-02-10T01:46:13.996Z,95.50
2019-02-10T01:47:49.517Z,95.50
2019-02-10T01:49:25.032Z,95.60
2019-02-10T01:51:00.527Z,95.60
2019-02-10T01:52:36.016Z,96.00
2019-02-10T01:54:11.594Z,96.10
2019-02-10T01:55:47.089Z,96.10
2019-02-10T01:57:22.598Z,96.20
2019-02-10T01:58:58.157Z,96.10
2019-02-10T02:00:33.952Z,96.20
2019-02-10T02:02:09.443Z,96.10
2019-02-10T02:03:44.959Z,96.00
2019-02-10T02:05:22.016Z,96.10
2019-02-10T02:06:58.187Z,96.00
2019-02-10T02:08:34.225Z,96.10
2019-02-10T02:10:15.140Z,96.70
2019-02-10T02:11:52.146Z,96.40
2019-02-10T02:13:27.633Z,96.30
2019-02-10T02:15:03.136Z,96.10
2019-02-10T02:16:38.632Z,96.10
2019-02-10T02:18:14.139Z,96.30
2019-02-10T02:19:49.631Z,96.50
2019-02-10T02:21:25.137Z,96.40
2019-02-10T02:23:00.655Z,96.30
2019-02-10T02:24:37.649Z,96.20
2019-02-10T02:26:13.161Z,96.30
2019-02-10T02:27:48.656Z,96.60
2019-02-10T02:29:24.155Z,96.30
2019-02-10T02:30:59.681Z,97.10
2019-02-10T02:32:36.743Z,96.70
2019-02-10T02:34:12.264Z,96.90
2019-02-10T02:35:47.793Z,96.60
2019-02-10T02:37:23.293Z,96.70
2019-02-10T02:38:58.793Z,96.50
2019-02-10T02:40:34.426Z,97.00
2019-02-10T02:42:09.926Z,97.40
2019-02-10T02:43:45.440Z,97.10
2019-02-10T02:45:20.946Z,97.00
2019-02-10T02:46:56.452Z,97.10
2019-02-10T02:48:32.071Z,97.40
2019-02-10T02:50:10.691Z,97.00
2019-02-10T02:51:46.203Z,97.50
2019-02-10T02:53:21.693Z,97.20
2019-02-10T02:54:58.655Z,96.90
2019-02-10T02:56:34.229Z,97.50
2019-02-10T02:58:09.918Z,97.00
2019-02-10T02:59:45.411Z,97.20
2019-02-10T03:01:20.916Z,96.90
2019-02-10T03:02:56.403Z,96.90
2019-02-10T03:04:31.932Z,96.90
2019-02-10T03:06:07.430Z,96.90
2019-02-10T03:07:43.003Z,96.90
2019-02-10T03:09:18.502Z,96.80
2019-02-10T03:10:54.028Z,96.90
2019-02-10T03:12:29.523Z,97.10
2019-02-10T03:14:06.670Z,96.90
2019-02-10T03:15:42.167Z,96.90
2019-02-10T03:17:17.695Z,97.10
2019-02-10T03:18:53.563Z,97.00
2019-02-10T03:20:29.244Z,96.90
2019-02-10T03:22:04.737Z,97.00
2019-02-10T03:23:40.303Z,96.90
2019-02-10T03:25:15.822Z,97.00
2019-02-10T03:26:51.316Z,97.50
2019-02-10T03:28:26.826Z,97.70
2019-02-10T03:30:02.325Z,97.80
2019-02-10T03:31:39.045Z,97.50
2019-02-10T03:33:14.556Z,97.60
2019-02-10T03:34:50.090Z,97.70
2019-02-10T03:36:25.708Z,97.70
2019-02-10T03:38:01.232Z,97.60
2019-02-10T03:39:36.734Z,97.30
2019-02-10T03:41:12.229Z,97.40
2019-02-10T03:42:47.743Z,97.70
2019-02-10T03:44:23.244Z,97.90
2019-02-10T03:45:58.762Z,97.50
2019-02-10T03:47:34.401Z,97.40
2019-02-10T03:49:09.898Z,97.30
2019-02-10T03:50:45.407Z,97.20
2019-02-10T03:52:21.038Z,97.20
2019-02-10T03:53:56.542Z,97.30
2019-02-10T03:55:32.033Z,97.20
2019-02-10T03:57:09.084Z,97.20
2019-02-10T03:58:44.572Z,97.30
2019-02-10T04:00:20.071Z,97.60
2019-02-10T04:01:55.567Z,97.40
2019-02-10T04:03:31.101Z,97.40
2019-02-10T04:05:06.667Z,97.30
2019-02-10T04:06:42.165Z,97.20
2019-02-10T04:08:17.652Z,97.30
2019-02-10T04:09:53.265Z,97.20
2019-02-10T04:11:28.806Z,97.40
2019-02-10T04:13:04.303Z,97.40
2019-02-10T04:14:39.801Z,97.10
2019-02-10T04:16:15.305Z,97.50
2019-02-10T04:17:50.873Z,97.40
2019-02-10T04:19:26.403Z,97.20
2019-02-10T04:21:01.905Z,97.20
2019-02-10T04:22:37.410Z,97.20
2019-02-10T04:24:12.938Z,97.30
2019-02-10T04:25:48.447Z,97.60
2019-02-10T04:27:23.953Z,97.30
2019-02-10T04:28:59.503Z,97.00
2019-02-10T04:30:34.999Z,97.20
2019-02-10T04:32:10.513Z,97.30
2019-02-10T04:33:46.028Z,97.20
2019-02-10T04:35:21.564Z,97.20
2019-02-10T04:36:57.105Z,97.20
2019-02-10T04:38:32.633Z,97.30
2019-02-10T04:40:09.621Z,97.30
2019-02-10T04:41:45.123Z,97.50
2019-02-10T04:43:20.701Z,97.40
2019-02-10T04:44:56.211Z,97.40
2019-02-10T04:46:31.714Z,97.30
2019-02-10T04:48:07.215Z,97.30
2019-02-10T04:49:42.704Z,97.30
2019-02-10T04:51:18.233Z,97.30
2019-02-10T04:52:53.781Z,97.30
2019-02-10T04:54:29.319Z,97.20
2019-02-10T04:56:13.529Z,97.20
2019-02-10T04:57:49.027Z,97.20
2019-02-10T04:59:24.518Z,97.10
2019-02-10T05:01:00.071Z,97.20
2019-02-10T05:02:35.626Z,97.20
2019-02-10T05:04:11.272Z,97.30
2019-02-10T05:05:46.793Z,97.30
2019-02-10T05:07:22.314Z,97.10
2019-02-10T05:08:57.805Z,97.20
2019-02-10T05:10:33.345Z,97.50
2019-02-10T05:12:08.840Z,97.20
2019-02-10T05:13:44.353Z,97.50
2019-02-10T05:15:19.841Z,97.50
2019-02-10T05:16:55.342Z,97.40
2019-02-10T05:18:32.343Z,97.90
2019-02-10T05:20:08.896Z,97.90
2019-02-10T05:21:44.390Z,98.00
2019-02-10T05:23:19.893Z,97.80
2019-02-10T05:24:55.426Z,97.60
2019-02-10T05:26:30.946Z,98.10
2019-02-10T05:28:06.446Z,98.00
2019-02-10T05:29:43.458Z,98.00
2019-02-10T05:31:19.031Z,97.90
2019-02-10T05:32:54.539Z,97.80
2019-02-10T05:34:30.048Z,97.70
2019-02-10T05:36:05.556Z,97.80
2019-02-10T05:37:41.057Z,97.80
2019-02-10T05:39:16.650Z,97.90
2019-02-10T05:40:52.157Z,97.90
2019-02-10T05:42:27.657Z,97.90
2019-02-10T05:44:03.169Z,98.10
2019-02-10T05:45:38.680Z,98.00
2019-02-10T05:47:15.681Z,97.80
2019-02-10T05:48:51.181Z,97.90
2019-02-10T05:50:26.714Z,98.20
2019-02-10T05:52:02.213Z,97.90
2019-02-10T05:53:37.712Z,97.90
2019-02-10T05:55:13.293Z,97.80
2019-02-10T05:56:48.793Z,97.90
2019-02-10T05:58:24.319Z,98.00
2019-02-10T06:00:01.327Z,97.90
2019-02-10T06:02:07.428Z,97.90
2019-02-10T06:03:42.926Z,97.80
2019-02-10T06:05:21.752Z,98.30
2019-02-10T06:07:01.766Z,98.10
2019-02-10T06:08:37.267Z,98.00
2019-02-10T06:10:12.784Z,98.20
2019-02-10T06:11:48.318Z,98.20
2019-02-10T06:13:23.875Z,98.10
2019-02-10T06:14:59.398Z,97.90
2019-02-10T06:16:34.903Z,97.80
2019-02-10T06:18:10.395Z,97.80
2019-02-10T06:19:45.900Z,97.70
2019-02-10T06:21:21.423Z,97.60
2019-02-10T06:22:58.404Z,97.40
2019-02-10T06:24:33.970Z,97.40
2019-02-10T06:26:09.463Z,97.10
2019-02-10T06:27:44.978Z,97.60
2019-02-10T06:29:20.474Z,97.40
2019-02-10T06:30:55.959Z,97.30
2019-02-10T06:32:31.450Z,96.30
2019-02-10T06:34:06.996Z,95.60
2019-02-10T06:35:42.550Z,95.50
2019-02-10T06:37:19.530Z,93.90
2019-02-10T06:38:55.023Z,93.40
2019-02-10T06:40:30.553Z,93.90
2019-02-10T06:42:06.027Z,93.90
2019-02-10T06:43:41.517Z,93.40
2019-02-10T06:45:17.163Z,92.50
2019-02-10T06:46:52.656Z,92.40
2019-02-10T06:48:28.141Z,91.90
2019-02-10T06:50:03.712Z,90.40
2019-02-10T06:51:39.190Z,88.80
2019-02-10T06:53:14.683Z,89.40
2019-02-10T06:54:53.196Z,89.20
2019-02-10T06:56:28.723Z,91.00
2019-02-10T06:58:04.222Z,90.70
2019-02-10T06:59:41.355Z,85.20
2019-02-10T07:01:27.492Z,87.50
2019-02-10T07:03:42.662Z,84.00
2019-02-10T07:05:18.153Z,85.60
2019-02-10T07:06:53.638Z,83.20
2019-02-10T07:08:30.647Z,78.70
2019-02-10T07:10:08.151Z,80.70
2019-02-10T07:11:43.704Z,79.00
2019-02-10T07:13:36.066Z,80.60
2019-02-10T07:15:35.797Z,79.60
2019-02-10T07:17:18.636Z,76.80
2019-02-10T07:19:48.979Z,76.80
2019-02-10T07:21:29.546Z,75.70
2019-02-10T07:23:59.995Z,76.80
2019-02-10T07:25:44.457Z,77.20
2019-02-10T07:27:24.813Z,76.90
2019-02-10T07:29:00.477Z,78.80
2019-02-10T07:30:53.002Z,80.20
2019-02-10T07:32:32.298Z,80.40
2019-02-10T07:34:31.909Z,80.30
2019-02-10T07:36:18.035Z,79.00
2019-02-10T07:37:58.422Z,78.20
2019-02-10T07:39:59.806Z,78.40
2019-02-10T07:41:48.977Z,77.70
2019-02-10T07:43:57.996Z,77.30
2019-02-10T07:46:02.226Z,77.20
2019-02-10T07:47:57.050Z,76.20
2019-02-10T07:50:16.627Z,76.80
2019-02-10T07:52:25.723Z,75.00
2019-02-10T07:54:12.172Z,77.50
2019-02-10T07:56:14.301Z,76.10
2019-02-10T07:58:07.753Z,75.80
2019-02-10T07:59:50.809Z,76.50
2019-02-10T08:01:40.083Z,77.30
2019-02-10T08:03:38.105Z,78.40
2019-02-10T08:05:21.177Z,77.70
2019-02-10T08:07:10.228Z,77.40
2019-02-10T08:09:16.179Z,76.10
2019-02-10T08:11:23.386Z,76.50
2019-02-10T08:13:15.802Z,78.00
2019-02-10T08:14:58.864Z,78.90
2019-02-10T08:17:19.884Z,78.70
2019-02-10T08:19:22.855Z,81.10
2019-02-10T08:21:15.133Z,80.50
2019-02-10T08:23:00.947Z,81.10
2019-02-10T08:25:02.282Z,82.50
2019-02-10T08:27:18.423Z,84.00
2019-02-10T08:29:18.111Z,86.60
2019-02-10T08:31:13.732Z,85.90
2019-02-10T08:33:12.389Z,84.80
2019-02-10T08:34:58.145Z,84.70
2019-02-10T08:37:04.841Z,82.70
2019-02-10T08:39:12.371Z,82.50
2019-02-10T08:41:01.417Z,81.20
2019-02-10T08:43:04.159Z,80.60
2019-02-10T08:44:50.274Z,81.40
2019-02-10T08:46:59.242Z,80.60
2019-02-10T08:48:51.418Z,80.00
2019-02-10T08:50:43.663Z,80.50
2019-02-10T08:52:39.084Z,80.00
2019-02-10T08:54:14.567Z,78.90
2019-02-10T08:55:50.049Z,79.80
2019-02-10T08:57:25.533Z,80.50
2019-02-10T08:59:01.058Z,80.60
2019-02-10T09:00:36.539Z,79.60
2019-02-10T09:02:12.021Z,78.90
2019-02-10T09:03:47.502Z,79.40
2019-02-10T09:05:23.090Z,79.40
2019-02-10T09:06:58.580Z,78.80
2019-02-10T09:08:34.153Z,77.50
2019-02-10T09:10:12.876Z,78.20
2019-02-10T09:11:48.356Z,79.20
2019-02-10T09:13:23.839Z,79.10
2019-02-10T09:14:59.342Z,79.00
2019-02-10T09:16:34.818Z,80.00
2019-02-10T09:18:10.313Z,81.20
2019-02-10T09:19:45.794Z,81.40
2019-02-10T09:21:21.686Z,80.30
2019-02-10T09:22:57.172Z,80.20
2019-02-10T09:24:32.661Z,78.70
2019-02-10T09:26:08.143Z,79.50
2019-02-10T09:27:43.682Z,79.30
2019-02-10T09:29:19.225Z,80.60
2019-02-10T09:30:54.711Z,80.40
2019-02-10T09:32:30.205Z,79.60
2019-02-10T09:34:05.688Z,78.50
2019-02-10T09:35:41.166Z,78.10
2019-02-10T09:37:16.759Z,78.60
2019-02-10T09:38:52.229Z,78.40
2019-02-10T09:40:29.256Z,78.40
2019-02-10T09:42:04.729Z,78.80
2019-02-10T09:43:40.233Z,79.00
2019-02-10T09:45:15.716Z,79.10
2019-02-10T09:46:51.229Z,78.90
2019-02-10T09:48:26.713Z,80.10
2019-02-10T09:50:02.190Z,78.60
2019-02-10T09:51:37.662Z,78.20
2019-02-10T09:53:15.857Z,77.80
2019-02-10T09:54:51.352Z,77.50
2019-02-10T09:56:26.827Z,75.20
2019-02-10T09:58:02.341Z,75.20
2019-02-10T09:59:37.826Z,75.60
2019-02-10T10:01:16.568Z,75.90
2019-02-10T10:02:52.038Z,75.60
2019-02-10T10:04:27.613Z,75.50
2019-02-10T10:06:03.095Z,75.50
2019-02-10T10:07:38.574Z,76.60
2019-02-10T10:09:18.989Z,76.50
2019-02-10T10:10:51.260Z,78.20
2019-02-10T10:12:26.747Z,77.70
2019-02-10T10:14:02.317Z,76.80
2019-02-10T10:15:37.887Z,76.00
2019-02-10T10:17:15.776Z,75.70
2019-02-10T10:18:51.265Z,74.70
2019-02-10T10:20:26.759Z,73.90
2019-02-10T10:22:02.281Z,74.10
2019-02-10T10:23:37.802Z,74.00
2019-02-10T10:25:13.299Z,73.80
2019-02-10T10:26:48.791Z,73.60
2019-02-10T10:28:24.276Z,73.70
2019-02-10T10:29:59.765Z,72.20
2019-02-10T10:31:35.240Z,70.50
2019-02-10T10:33:10.726Z,71.40
2019-02-10T10:34:46.253Z,71.30
2019-02-10T10:36:21.740Z,71.30
2019-02-10T10:37:57.225Z,71.70
2019-02-10T10:39:32.715Z,70.60
2019-02-10T10:41:08.228Z,71.10
2019-02-10T10:42:43.711Z,71.10
2019-02-10T10:44:19.469Z,70.30
2019-02-10T10:45:54.999Z,69.00
2019-02-10T10:47:30.494Z,69.20
2019-02-10T10:49:05.977Z,71.00
2019-02-10T10:50:41.503Z,68.20
2019-02-10T10:52:16.987Z,68.30
2019-02-10T10:53:52.626Z,68.70
2019-02-10T10:55:28.121Z,69.00
2019-02-10T10:57:03.614Z,69.40
2019-02-10T10:58:39.102Z,69.80
2019-02-10T11:00:15.985Z,69.30
2019-02-10T11:01:51.463Z,69.30
2019-02-10T11:03:26.953Z,69.00
2019-02-10T11:05:02.483Z,68.70
2019-02-10T11:06:38.010Z,68.60
2019-02-10T11:08:13.499Z,67.90
2019-02-10T11:09:48.989Z,68.40
2019-02-10T11:11:25.982Z,68.60
2019-02-10T11:13:01.485Z,68.30
2019-02-10T11:14:36.966Z,69.00
2019-02-10T11:16:12.448Z,69.70
2019-02-10T11:17:47.944Z,68.70
2019-02-10T11:19:23.570Z,68.70
2019-02-10T11:20:59.046Z,68.20
2019-02-10T11:22:34.832Z,68.20
2019-02-10T11:24:10.298Z,68.40
2019-02-10T11:25:45.794Z,67.30
2019-02-10T11:27:21.285Z,67.50
2019-02-10T11:28:56.776Z,67.20
2019-02-10T11:30:33.866Z,66.70
2019-02-10T11:32:09.441Z,66.70
2019-02-10T11:33:45.841Z,67.10
2019-02-10T11:35:21.311Z,67.50
2019-02-10T11:36:56.802Z,66.90
2019-02-10T11:38:32.308Z,65.80
2019-02-10T11:40:14.176Z,66.10
2019-02-10T11:41:49.663Z,66.40
2019-02-10T11:43:25.422Z,65.70
2019-02-10T11:45:00.937Z,65.80
2019-02-10T11:46:36.680Z,66.00
2019-02-10T11:48:12.171Z,65.30
2019-02-10T11:49:47.644Z,65.70
2019-02-10T11:51:23.204Z,67.00
2019-02-10T11:52:58.696Z,66.20
2019-02-10T11:54:34.255Z,64.80
2019-02-10T11:56:09.855Z,64.90
2019-02-10T11:57:45.332Z,65.20
2019-02-10T11:59:20.882Z,65.30
2019-02-10T12:00:56.368Z,64.30
2019-02-10T12:02:37.882Z,64.20
2019-02-10T12:04:09.088Z,64.60
2019-02-10T12:05:44.566Z,65.50
2019-02-10T12:07:20.114Z,65.60
2019-02-10T12:08:55.647Z,66.80
2019-02-10T12:10:31.200Z,66.50
2019-02-10T12:12:06.693Z,65.10
2019-02-10T12:13:42.260Z,63.60
2019-02-10T12:15:17.781Z,62.40
2019-02-10T12:16:54.036Z,63.10
2019-02-10T12:18:29.511Z,64.70
2019-02-10T12:20:12.828Z,65.00
2019-02-10T12:21:48.346Z,65.50
2019-02-10T12:23:23.833Z,65.70
2019-02-10T12:24:59.314Z,64.60
2019-02-10T12:26:34.793Z,63.80
2019-02-10T12:28:10.318Z,63.00
2019-02-10T12:29:45.804Z,62.40
2019-02-10T12:31:21.286Z,62.40
2019-02-10T12:32:56.768Z,61.40
2019-02-10T12:34:32.298Z,63.30
2019-02-10T12:36:07.778Z,61.80
2019-02-10T12:37:43.267Z,61.90
2019-02-10T12:39:18.743Z,62.80
2019-02-10T12:40:54.247Z,62.80
2019-02-10T12:42:29.726Z,62.30
2019-02-10T12:44:05.212Z,62.40
2019-02-10T12:45:40.695Z,61.90
2019-02-10T12:47:16.254Z,62.10
2019-02-10T12:48:51.769Z,61.30
2019-02-10T12:50:27.332Z,62.20
2019-02-10T12:52:02.807Z,62.20
2019-02-10T12:53:38.293Z,63.00
2019-02-10T12:55:13.873Z,62.50
2019-02-10T12:56:49.354Z,63.80
2019-02-10T12:58:26.339Z,63.20
2019-02-10T13:00:01.816Z,62.50
2019-02-10T13:01:37.340Z,62.80
2019-02-10T13:03:12.838Z,62.80
2019-02-10T13:04:50.147Z,62.30
2019-02-10T13:06:25.769Z,62.10
2019-02-10T13:08:01.272Z,62.80
2019-02-10T13:09:36.749Z,62.90
2019-02-10T13:11:12.242Z,63.40
2019-02-10T13:12:47.758Z,64.50
2019-02-10T13:14:23.463Z,63.70
2019-02-10T13:15:58.944Z,62.60
2019-02-10T13:17:34.494Z,63.40
2019-02-10T13:19:09.978Z,63.90
2019-02-10T13:20:45.467Z,64.90
2019-02-10T13:22:20.949Z,64.40
2019-02-10T13:23:56.467Z,64.40
2019-02-10T13:25:31.947Z,64.40
2019-02-10T13:27:07.467Z,64.60
2019-02-10T13:28:44.447Z,65.20
2019-02-10T13:30:20.217Z,66.70
2019-02-10T13:31:55.691Z,67.10
2019-02-10T13:33:31.183Z,67.60
2019-02-10T13:35:06.739Z,68.30
2019-02-10T13:36:42.227Z,69.00
2019-02-10T13:38:17.735Z,68.60
2019-02-10T13:39:53.219Z,69.20
2019-02-10T13:41:35.259Z,70.30
2019-02-10T13:43:10.739Z,69.50
2019-02-10T13:44:46.229Z,69.60
2019-02-10T13:46:21.710Z,68.70
2019-02-10T13:47:57.221Z,68.90
2019-02-10T13:49:32.696Z,69.80
2019-02-10T13:51:08.175Z,68.90
2019-02-10T13:52:43.668Z,69.40
2019-02-10T13:54:19.174Z,68.80
2019-02-10T13:55:54.653Z,69.70
2019-02-10T13:57:30.138Z,68.90
2019-02-10T13:59:05.689Z,69.20
2019-02-10T14:00:41.201Z,69.50
2019-02-10T14:02:18.315Z,69.00
2019-02-10T14:03:55.441Z,69.00
2019-02-10T14:05:33.890Z,68.80
2019-02-10T14:07:09.386Z,68.50
2019-02-10T14:08:44.857Z,68.60
2019-02-10T14:10:25.815Z,68.30
2019-02-10T14:11:57.528Z,68.00
2019-02-10T14:13:33.008Z,69.30
2019-02-10T14:15:16.921Z,69.60
2019-02-10T14:16:52.687Z,70.10
2019-02-10T14:18:28.169Z,70.70
2019-02-10T14:20:04.329Z,70.90
2019-02-10T14:21:39.805Z,71.00
2019-02-10T14:23:15.362Z,71.40
2019-02-10T14:24:50.843Z,71.80
2019-02-10T14:26:26.342Z,72.30
2019-02-10T14:28:02.783Z,72.80
2019-02-10T14:29:38.274Z,73.10
2019-02-10T14:31:15.326Z,73.60
2019-02-10T14:32:50.811Z,74.00
2019-02-10T14:34:26.296Z,74.00
2019-02-10T14:36:01.786Z,74.40
2019-02-10T14:37:37.272Z,74.90
2019-02-10T14:39:14.325Z,75.10
2019-02-10T14:40:49.809Z,75.20
2019-02-10T14:42:25.299Z,75.50
2019-02-10T14:44:00.776Z,76.30
2019-02-10T14:45:36.256Z,76.50
2019-02-10T14:47:12.001Z,76.60
2019-02-10T14:48:47.488Z,77.10
2019-02-10T14:50:23.156Z,77.50
2019-02-10T14:51:59.518Z,78.10
2019-02-10T14:53:35.439Z,78.30
2019-02-10T14:55:10.076Z,78.50
2019-02-10T14:56:45.346Z,78.50
2019-02-10T14:58:20.829Z,78.90
2019-02-10T14:59:56.346Z,79.50
2019-02-10T15:01:33.345Z,78.70
2019-02-10T15:03:08.824Z,79.20
2019-02-10T15:04:44.374Z,79.70
2019-02-10T15:06:19.880Z,80.00
2019-02-10T15:07:55.357Z,80.10
2019-02-10T15:09:30.838Z,79.60
2019-02-10T15:11:06.898Z,79.50
2019-02-10T15:12:43.085Z,79.70
2019-02-10T15:14:18.576Z,79.30
2019-02-10T15:15:54.073Z,79.60
2019-02-10T15:17:29.882Z,80.00
2019-02-10T15:19:05.425Z,80.50
2019-02-10T15:20:40.903Z,80.40
2019-02-10T15:22:16.388Z,80.70
2019-02-10T15:23:51.875Z,80.80
2019-02-10T15:25:28.190Z,80.80
2019-02-10T15:27:03.703Z,80.90
2019-02-10T15:28:39.185Z,81.00
2019-02-10T15:30:17.114Z,81.10
2019-02-10T15:31:56.199Z,81.60
2019-02-10T15:33:33.172Z,81.70
2019-02-10T15:35:08.651Z,81.90
2019-02-10T15:36:44.159Z,82.20
2019-02-10T15:38:20.373Z,82.50
2019-02-10T15:39:55.925Z,82.50
2019-02-10T15:41:31.413Z,82.60
2019-02-10T15:43:09.856Z,82.70
2019-02-10T15:44:45.764Z,82.80
2019-02-10T15:46:22.416Z,83.00
2019-02-10T15:47:57.928Z,83.50
2019-02-10T15:49:33.427Z,83.70
2019-02-10T15:51:09.217Z,83.90
2019-02-10T15:52:46.198Z,84.10
2019-02-10T15:54:21.698Z,84.30
2019-02-10T15:55:57.182Z,84.30
2019-02-10T15:57:34.203Z,84.50
2019-02-10T15:59:10.792Z,84.20
2019-02-10T16:00:46.276Z,84.00
2019-02-10T16:02:21.758Z,83.90
2019-02-10T16:03:57.290Z,84.30
2019-02-10T16:05:32.777Z,84.40
2019-02-10T16:07:08.273Z,84.50
2019-02-10T16:08:43.835Z,84.70
2019-02-10T16:10:19.345Z,84.40
2019-02-10T16:11:54.968Z,84.30
2019-02-10T16:13:30.462Z,84.00
2019-02-10T16:15:09.158Z,83.90
2019-02-10T16:16:46.153Z,84.00
2019-02-10T16:18:21.662Z,84.30
2019-02-10T16:19:57.154Z,84.40
2019-02-10T16:21:32.653Z,84.50
2019-02-10T16:23:08.210Z,85.00
2019-02-10T16:24:43.701Z,84.60
2019-02-10T16:26:19.184Z,85.00
2019-02-10T16:27:54.786Z,84.80
2019-02-10T16:29:30.281Z,84.80
2019-02-10T16:31:05.767Z,85.00
2019-02-10T16:32:49.301Z,85.20
2019-02-10T16:34:18.439Z,85.00
2019-02-10T16:35:53.928Z,84.90
2019-02-10T16:37:29.479Z,84.70
2019-02-10T16:39:07.286Z,85.20
2019-02-10T16:40:42.843Z,85.40
2019-02-10T16:42:18.334Z,85.70
2019-02-10T16:43:54.394Z,85.70
2019-02-10T16:45:29.889Z,85.80
2019-02-10T16:47:05.427Z,85.60
2019-02-10T16:48:40.915Z,85.70
2019-02-10T16:50:18.625Z,85.90
2019-02-10T16:51:54.415Z,86.40
2019-02-10T16:53:29.907Z,85.90
2019-02-10T16:55:09.462Z,86.20
2019-02-10T16:56:44.943Z,86.20
2019-02-10T16:58:20.522Z,86.10
2019-02-10T16:59:58.301Z,86.10
2019-02-10T17:01:33.972Z,86.20
2019-02-10T17:03:09.458Z,86.30
2019-02-10T17:04:45.008Z,86.30
2019-02-10T17:06:20.572Z,86.40
2019-02-10T17:08:15.493Z,86.50
2019-02-10T17:09:50.992Z,86.60
2019-02-10T17:11:26.505Z,86.80
2019-02-10T17:13:01.996Z,87.00
2019-02-10T17:14:37.485Z,86.70
2019-02-10T17:16:13.001Z,87.00
2019-02-10T17:17:50.222Z,87.00
2019-02-10T17:19:25.721Z,87.30
2019-02-10T17:21:01.202Z,87.00
2019-02-10T17:22:36.687Z,87.20
2019-02-10T17:24:12.209Z,87.10
2019-02-10T17:25:47.761Z,87.20
2019-02-10T17:27:23.248Z,87.60
2019-02-10T17:28:58.729Z,87.80
2019-02-10T17:30:34.394Z,87.70
2019-02-10T17:32:11.385Z,88.00
2019-02-10T17:33:46.867Z,88.90
2019-02-10T17:35:22.345Z,88.20
2019-02-10T17:36:57.853Z,88.30
2019-02-10T17:38:33.340Z,88.50
2019-02-10T17:40:34.599Z,88.70
2019-02-10T17:42:10.128Z,88.30
2019-02-10T17:43:45.621Z,88.30
2019-02-10T17:45:21.108Z,88.40
2019-02-10T17:46:56.594Z,88.30
2019-02-10T17:48:32.134Z,88.20
2019-02-10T17:50:12.583Z,88.40
2019-02-10T17:51:48.112Z,88.60
2019-02-10T17:53:23.599Z,88.70
2019-02-10T17:54:59.102Z,88.90
2019-02-10T17:56:34.675Z,88.90
2019-02-10T17:58:10.163Z,88.90
2019-02-10T17:59:45.682Z,88.80
2019-02-10T18:01:21.173Z,89.20
2019-02-10T18:02:56.733Z,89.10
2019-02-10T18:04:37.336Z,88.90
2019-02-10T18:06:09.488Z,89.30
2019-02-10T18:07:44.978Z,89.20
2019-02-10T18:09:20.474Z,89.40
2019-02-10T18:10:56.039Z,89.20
2019-02-10T18:12:33.470Z,89.50
2019-02-10T18:14:12.095Z,89.70
2019-02-10T18:15:55.094Z,89.80
2019-02-10T18:17:34.942Z,90.00
2019-02-10T18:19:27.063Z,90.00
2019-02-10T18:21:13.569Z,90.00
2019-02-10T18:22:56.444Z,90.00
2019-02-10T18:24:39.874Z,89.80
2019-02-10T18:26:23.381Z,90.00
2019-02-10T18:28:00.575Z,90.00
2019-02-10T18:29:37.702Z,90.10
2019-02-10T18:31:32.536Z,90.20
2019-02-10T18:33:12.391Z,90.10
2019-02-10T18:35:07.563Z,90.00
2019-02-10T18:36:47.363Z,90.00
2019-02-10T18:38:41.872Z,90.10
2019-02-10T18:40:25.012Z,90.00
2019-02-10T18:42:02.149Z,90.10
2019-02-10T18:43:42.082Z,90.20
2019-02-10T18:45:25.159Z,90.50
2019-02-10T18:47:07.761Z,90.20
2019-02-10T18:48:55.761Z,90.20
2019-02-10T18:50:35.882Z,90.30
2019-02-10T18:52:28.967Z,90.30
2019-02-10T18:54:15.011Z,90.20
2019-02-10T18:56:07.043Z,90.20
2019-02-10T18:58:00.106Z,90.30
2019-02-10T18:59:40.190Z,90.40
2019-02-10T19:01:17.377Z,90.30
2019-02-10T19:03:03.061Z,90.30
2019-02-10T19:04:42.893Z,90.40
2019-02-10T19:06:20.069Z,90.50
2019-02-10T19:09:43.776Z,90.50
2019-02-10T19:11:26.696Z,90.40
2019-02-10T19:13:15.549Z,90.40
2019-02-10T19:14:52.689Z,90.50
2019-02-10T19:16:29.837Z,90.60
2019-02-10T19:18:06.989Z,90.60
2019-02-10T19:19:43.753Z,90.70
2019-02-10T19:21:20.916Z,90.80
2019-02-10T19:23:02.320Z,90.90
2019-02-10T19:24:39.453Z,91.10
2019-02-10T19:26:28.679Z,91.00
2019-02-10T19:28:11.732Z,90.90
2019-02-10T19:30:00.704Z,90.90
2019-02-10T19:31:54.292Z,91.00
2019-02-10T19:33:47.720Z,91.10
2019-02-10T19:35:33.929Z,91.10
2019-02-10T19:37:09.188Z,91.20
2019-02-10T19:38:44.455Z,91.10
2019-02-10T19:40:19.731Z,91.20
2019-02-10T19:41:56.867Z,91.30
2019-02-10T19:43:36.958Z,91.30
2019-02-10T19:45:12.217Z,91.40
2019-02-10T19:47:04.094Z,91.40
2019-02-10T19:48:43.677Z,91.30
2019-02-10T19:50:33.900Z,91.20
2019-02-10T19:52:17.049Z,91.20
2019-02-10T19:54:11.924Z,91.20
2019-02-10T19:56:19.156Z,91.20
2019-02-10T19:58:12.318Z,91.20
2019-02-10T20:00:09.867Z,91.40
2019-02-10T20:02:04.573Z,91.40
2019-02-10T20:04:11.128Z,91.50
2019-02-10T20:06:06.068Z,91.40
2019-02-10T20:08:17.624Z,91.40
2019-02-10T20:10:16.155Z,91.50
2019-02-10T20:12:10.756Z,91.40
2019-02-10T20:13:47.903Z,91.50
2019-02-10T20:15:25.034Z,91.50
2019-02-10T20:17:20.305Z,91.50
2019-02-10T20:19:15.551Z,91.50
2019-02-10T20:20:52.681Z,91.50
2019-02-10T20:22:29.806Z,91.40
2019-02-10T20:24:09.620Z,91.50
2019-02-10T20:25:47.813Z,91.50
2019-02-10T20:27:29.011Z,91.60
2019-02-10T20:29:09.031Z,91.60
2019-02-10T20:30:46.177Z,91.60
2019-02-10T20:32:23.343Z,91.60
2019-02-10T20:34:12.473Z,91.70
2019-02-10T20:36:05.710Z,91.60
2019-02-10T20:37:48.448Z,91.60
2019-02-10T20:39:28.258Z,91.60
2019-02-10T20:41:11.348Z,91.60
2019-02-10T20:42:57.488Z,91.60
2019-02-10T20:44:40.771Z,91.40
2019-02-10T20:46:17.900Z,91.40
2019-02-10T20:48:05.358Z,91.30
2019-02-10T20:49:42.487Z,91.30
2019-02-10T20:51:37.702Z,91.80
2019-02-10T20:53:29.497Z,91.30
2019-02-10T20:55:08.721Z,91.30
2019-02-10T20:56:45.863Z,91.30
2019-02-10T20:58:38.005Z,91.30
2019-02-10T21:00:18.024Z,91.20
2019-02-10T21:02:04.793Z,91.20
2019-02-10T21:03:44.469Z,91.10
2019-02-10T21:05:21.764Z,91.00
2019-02-10T21:07:01.400Z,91.00
2019-02-10T21:08:36.651Z,90.90
2019-02-10T21:10:13.790Z,91.00